createdAt,value
2022-08-16T00:01:06.476Z,14.2
2022-08-16T00:07:04.391Z,14.1
2022-08-16T00:13:04.422Z,14.1
2022-08-16T00:19:04.459Z,14.1
2022-08-16T00:25:04.392Z,14.1
2022-08-16T00:31:04.419Z,14.1
2022-08-16T00:37:04.424Z,14.1
2022-08-16T00:43:04.426Z,14.1
2022-08-16T00:49:04.397Z,14.2
2022-08-16T00:55:04.405Z,14.1
2022-08-16T01:01:08.283Z,14.2
2022-08-16T01:07:04.417Z,14.1
2022-08-16T01:13:05.327Z,14.2
2022-08-16T01:19:04.448Z,14.2
2022-08-16T01:25:04.412Z,14.3
2022-08-16T01:31:04.445Z,14.3
2022-08-16T01:37:04.422Z,14.2
2022-08-16T01:43:05.756Z,14.3
2022-08-16T01:49:04.422Z,14.3
2022-08-16T01:55:04.401Z,14.4
2022-08-16T02:01:04.513Z,14.4
2022-08-16T02:07:04.423Z,14.4
2022-08-16T02:13:04.650Z,14.5
2022-08-16T02:19:04.436Z,14.5
2022-08-16T02:25:04.417Z,14.5
2022-08-16T02:31:04.441Z,14.5
2022-08-16T02:37:04.494Z,14.6
2022-08-16T02:43:04.472Z,14.6
2022-08-16T02:49:04.454Z,14.7
2022-08-16T02:55:04.442Z,14.7
2022-08-16T03:01:04.592Z,14.7
2022-08-16T03:07:04.464Z,14.8
2022-08-16T03:13:04.510Z,14.8
2022-08-16T03:19:04.435Z,14.8
2022-08-16T03:25:04.439Z,14.8
2022-08-16T03:31:04.436Z,14.9
2022-08-16T03:37:04.710Z,15
2022-08-16T03:43:20.160Z,15
2022-08-16T03:49:04.441Z,15
2022-08-16T03:55:04.446Z,15.1
2022-08-16T04:01:04.574Z,15.1
2022-08-16T04:07:05.710Z,15.2
2022-08-16T04:13:04.879Z,15.2
2022-08-16T04:19:04.893Z,15.3
2022-08-16T04:25:04.459Z,15.3
2022-08-16T04:31:04.472Z,15.5
2022-08-16T04:37:04.447Z,15.5
2022-08-16T04:43:04.434Z,15.5
2022-08-16T04:49:04.499Z,15.6
2022-08-16T04:55:04.448Z,15.6
2022-08-16T05:01:07.879Z,15.7
2022-08-16T05:07:04.469Z,15.7
2022-08-16T05:13:04.447Z,15.7
2022-08-16T05:19:04.462Z,15.8
2022-08-16T05:25:08.815Z,15.9
2022-08-16T05:31:06.673Z,15.9
2022-08-16T05:37:04.457Z,15.9
2022-08-16T05:43:04.478Z,16
2022-08-16T05:49:08.534Z,16
2022-08-16T05:55:04.467Z,16.1
2022-08-16T06:01:04.515Z,16.1
2022-08-16T06:07:06.888Z,16.1
2022-08-16T06:13:04.465Z,16.1
2022-08-16T06:19:05.011Z,16.1
2022-08-16T06:25:04.504Z,16.3
2022-08-16T06:31:04.634Z,16.1
2022-08-16T06:37:04.494Z,16.1
2022-08-16T06:43:04.620Z,16.1
2022-08-16T06:49:05.499Z,16.1
2022-08-16T06:55:04.472Z,16.2
2022-08-16T07:01:04.609Z,16
2022-08-16T07:07:04.517Z,16.1
2022-08-16T07:13:11.508Z,16.1
2022-08-16T07:19:04.505Z,16.1
2022-08-16T07:25:04.477Z,16.1
2022-08-16T07:31:04.512Z,16
2022-08-16T07:37:04.483Z,16.3
2022-08-16T07:43:05.155Z,16.1
2022-08-16T07:49:04.510Z,16.3
2022-08-16T07:55:04.504Z,15.9
2022-08-16T08:01:04.587Z,16.3
2022-08-16T08:07:04.491Z,16.2
2022-08-16T08:13:04.536Z,16.2
2022-08-16T08:19:04.530Z,15.8
2022-08-16T08:25:04.532Z,16.1
2022-08-16T08:31:04.588Z,15.6
2022-08-16T08:37:04.542Z,15.6
2022-08-16T08:43:12.677Z,16.1
2022-08-16T08:49:04.537Z,15.5
2022-08-16T08:55:04.527Z,15.7
2022-08-16T09:01:04.554Z,15.6
2022-08-16T09:07:04.567Z,16.2
2022-08-16T09:13:04.524Z,15.8
2022-08-16T09:19:04.573Z,15.1
2022-08-16T09:25:11.256Z,15.4
2022-08-16T09:31:04.573Z,15.6
2022-08-16T09:37:19.638Z,15.5
2022-08-16T09:43:04.574Z,15.7
2022-08-16T09:49:04.669Z,16.2
2022-08-16T09:55:04.556Z,15.4
2022-08-16T10:01:04.586Z,15.4
2022-08-16T10:07:14.667Z,15.2
2022-08-16T10:13:04.588Z,15.4
2022-08-16T10:19:06.968Z,15.5
2022-08-16T10:25:04.586Z,15
2022-08-16T10:31:04.647Z,14.6
2022-08-16T10:37:04.587Z,15.3
2022-08-16T10:43:04.628Z,15.8
2022-08-16T10:49:05.265Z,15.6
2022-08-16T11:07:08.302Z,15.1
2022-08-16T11:19:12.019Z,14.7
2022-08-16T11:25:12.517Z,13.8
2022-08-16T11:31:04.619Z,14.1
2022-08-16T11:37:04.625Z,13.9
2022-08-16T11:43:05.035Z,13.5
2022-08-16T11:49:05.958Z,11.6
2022-08-16T11:55:04.656Z,12.3
2022-08-16T12:01:04.672Z,13.2
2022-08-16T12:07:04.678Z,13.7
2022-08-16T12:13:04.641Z,13.8
2022-08-16T12:19:04.794Z,12.8
2022-08-16T12:25:04.727Z,13.6
2022-08-16T12:31:04.639Z,12.8
2022-08-16T12:37:08.944Z,13.2
2022-08-16T12:43:04.638Z,12.6
2022-08-16T12:49:04.663Z,12.1
2022-08-16T12:55:04.641Z,12.3
2022-08-16T13:01:04.722Z,13
2022-08-16T13:07:05.105Z,13.1
2022-08-16T13:13:04.667Z,12.8
2022-08-16T13:19:04.659Z,13.3
2022-08-16T13:25:04.700Z,13.3
2022-08-16T13:31:04.665Z,12.9
2022-08-16T13:37:04.690Z,13
2022-08-16T13:43:04.666Z,12.4
2022-08-16T13:49:04.693Z,12.5
2022-08-16T13:55:04.685Z,12.7
2022-08-16T14:01:04.678Z,12.7
2022-08-16T14:07:04.703Z,12.8
2022-08-16T14:13:04.696Z,12.6
2022-08-16T14:19:04.708Z,12.7
2022-08-16T14:25:07.238Z,12.8
2022-08-16T14:31:04.722Z,12.4
2022-08-16T14:37:04.683Z,12.5
2022-08-16T14:43:06.220Z,12.8
2022-08-16T14:49:04.746Z,13.2
2022-08-16T14:55:04.736Z,12.8
2022-08-16T15:01:04.811Z,12.7
2022-08-16T15:07:05.220Z,12.6
2022-08-16T15:13:04.722Z,13
2022-08-16T15:19:04.717Z,12.3
2022-08-16T15:25:04.706Z,12.5
2022-08-16T15:31:04.748Z,12.5
2022-08-16T15:37:04.747Z,12.7
2022-08-16T15:43:04.737Z,12.8
2022-08-16T15:49:04.778Z,12.7
2022-08-16T15:55:13.032Z,12.2
2022-08-16T16:01:04.804Z,12.4
2022-08-16T16:07:04.735Z,12.3
2022-08-16T16:13:04.851Z,12.6
2022-08-16T16:19:04.720Z,12.2
2022-08-16T16:25:04.725Z,12.9
2022-08-16T16:31:04.785Z,12.3
2022-08-16T16:37:04.745Z,12.7
2022-08-16T16:43:05.023Z,12
2022-08-16T16:49:04.760Z,12.6
2022-08-16T16:55:04.779Z,12.2
2022-08-16T17:01:04.815Z,12.3
2022-08-16T17:07:10.616Z,13
2022-08-16T17:13:05.344Z,12.7
2022-08-16T17:19:16.825Z,12.5
2022-08-16T17:25:07.315Z,12.4
2022-08-16T17:31:04.781Z,11.6
2022-08-16T17:37:05.282Z,12.8
2022-08-16T17:43:04.786Z,12.7
2022-08-16T17:49:04.767Z,12.4
2022-08-16T17:55:04.777Z,12.9
2022-08-16T18:01:04.829Z,12.3
2022-08-16T18:07:04.782Z,12.6
2022-08-16T18:13:04.784Z,12.3
2022-08-16T18:19:04.809Z,12.4
2022-08-16T18:25:04.844Z,11.9
2022-08-16T18:31:05.383Z,12
2022-08-16T18:37:04.818Z,11.8
2022-08-16T18:43:04.807Z,11.8
2022-08-16T18:49:04.792Z,11.6
2022-08-16T18:55:14.022Z,11.5
2022-08-16T19:01:04.861Z,11.5
2022-08-16T19:07:04.821Z,11.5
2022-08-16T19:13:04.796Z,11.5
2022-08-16T19:19:04.789Z,11.8
2022-08-16T19:25:04.816Z,11.9
2022-08-16T19:31:04.808Z,12
2022-08-16T19:37:04.873Z,12.2
2022-08-16T19:43:04.816Z,12.1
2022-08-16T19:49:04.812Z,12.2
2022-08-16T19:55:04.832Z,12.1
2022-08-16T20:01:04.816Z,12.2
2022-08-16T20:07:04.847Z,12.4
2022-08-16T20:13:04.852Z,12.7
2022-08-16T20:19:04.848Z,12.8
2022-08-16T20:25:04.860Z,12.9
2022-08-16T20:31:04.839Z,12.9
2022-08-16T20:37:04.842Z,12.5
2022-08-16T20:43:04.848Z,12.5
2022-08-16T20:49:04.826Z,12.4
2022-08-16T20:55:04.851Z,12.3
2022-08-16T21:01:04.891Z,12.1
2022-08-16T21:07:04.842Z,12.1
2022-08-16T21:13:04.877Z,12.4
2022-08-16T21:19:04.845Z,12.3
2022-08-16T21:25:04.869Z,12.4
2022-08-16T21:31:04.843Z,12.5
2022-08-16T21:37:04.895Z,12.5
2022-08-16T21:43:04.856Z,12.6
2022-08-16T21:49:04.868Z,12.6
2022-08-16T21:55:04.875Z,12.7
2022-08-16T22:01:04.881Z,12.8
2022-08-16T22:07:04.911Z,12.8
2022-08-16T22:13:04.891Z,12.7
2022-08-16T22:19:04.869Z,12.7
2022-08-16T22:25:04.887Z,12.7
2022-08-16T22:31:04.888Z,12.6
2022-08-16T22:37:04.865Z,12.6
2022-08-16T22:43:04.879Z,12.6
2022-08-16T22:49:04.890Z,12.6
2022-08-16T22:55:04.858Z,12.6
2022-08-16T23:01:04.955Z,12.5
2022-08-16T23:07:04.900Z,12.4
2022-08-16T23:13:04.879Z,12.3
2022-08-16T23:19:04.870Z,12.3
2022-08-16T23:25:04.942Z,12.2
2022-08-16T23:31:04.884Z,12.2
2022-08-16T23:37:04.877Z,12.2
2022-08-16T23:43:04.890Z,12.2
2022-08-16T23:49:58.909Z,12.2
2022-08-16T23:55:04.919Z,12.2
